Alex, Minnesota
Current Conditions -  °F | °C
As of 12:31 PM on Friday 28 Nov 2014 (Local Time) from KAXN Reporting Station
Haze Haze  
Wind Chill: -1°   Ceiling: 900
Heat Index: 13°   Visibility: 2mi
Dew Point:   Wind: 12mph
Humidity: 84%   Direction: 110°ESE
Pressure: 29.81"   Gusts: NA
Location:  45.8551°N, 95.4333°W
Report Text: KAXN 281831Z AUTO 11010KT 2SM BR BKN009 OVC065 M11/M13 A2981 RMK AO2 UPE24SNB24E25 P0000 T11061128
Loading
Personal Weather Stations






























Interactive Weather Map New forecast layout! Learn more

10-Day Weather Forecast

Advertisements
Track Severe Weather on mobile